Time;durP1;ratioP1;P1;durP2;ratioP2;P2;SDS_P1;SDS_P2;PMS_P1;PMS_P2;Temp;Humidity;BMP_temperature;BMP_pressure;BME280_temperature;BME280_humidity;BME280_pressure;Samples;Min_cycle;Max_cycle;Signal;HPM_P1;HPM_P2
2023/08/23 00:01:40;;;;;;;11.32;7.82;;;;;;;;;;5033559;28;20477;-79
2023/08/23 00:04:06;;;;;;;10.68;7.75;;;;;;;;;;5013507;28;20138;-79
2023/08/23 00:06:32;;;;;;;10.65;8.30;;;;;;;;;;5014850;28;20058;-79
2023/08/23 00:08:59;;;;;;;10.65;8.10;;;;;;;;;;5014180;28;20437;-78
2023/08/23 00:11:25;;;;;;;11.85;8.45;;;;;;;;;;5011900;28;20068;-79
2023/08/23 00:13:51;;;;;;;12.13;8.27;;;;;;;;;;4995279;28;20045;-79
2023/08/23 00:16:17;;;;;;;14.07;8.68;;;;;;;;;;4997953;28;20076;-79
2023/08/23 00:18:43;;;;;;;11.55;8.25;;;;;;;;;;5015298;28;20172;-79
2023/08/23 00:21:09;;;;;;;12.15;8.45;;;;;;;;;;5013889;28;20486;-79
2023/08/23 00:23:35;;;;;;;13.65;8.52;;;;;;;;;;5015242;28;20058;-79
2023/08/23 00:26:01;;;;;;;11.85;8.40;;;;;;;;;;4997630;28;20103;-79
2023/08/23 00:28:27;;;;;;;12.50;9.40;;;;;;;;;;4997409;28;20141;-79
2023/08/23 00:30:54;;;;;;;12.18;9.35;;;;;;;;;;4997446;28;20101;-78
2023/08/23 00:33:20;;;;;;;12.95;9.52;;;;;;;;;;4997536;28;20038;-79
2023/08/23 00:35:46;;;;;;;13.05;10.35;;;;;;;;;;4997419;28;20511;-79
2023/08/23 00:38:12;;;;;;;13.57;9.90;;;;;;;;;;5013106;28;20062;-79
2023/08/23 00:40:38;;;;;;;11.85;9.55;;;;;;;;;;5015113;28;20049;-79
2023/08/23 00:43:07;;;;;;;13.43;10.27;;;;;;;;;;4996898;28;20053;-79
2023/08/23 00:45:35;;;;;;;13.80;9.55;;;;;;;;;;4997183;28;20053;-79
2023/08/23 00:48:02;;;;;;;13.30;10.40;;;;;;;;;;5014557;28;20057;-78
2023/08/23 00:50:28;;;;;;;15.70;11.15;;;;;;;;;;4995572;28;20058;-78
2023/08/23 00:52:54;;;;;;;13.45;10.32;;;;;;;;;;4997143;28;20054;-78
2023/08/23 00:55:21;;;;;;;14.18;10.20;;;;;;;;;;5014796;28;20406;-78
2023/08/23 00:57:47;;;;;;;15.23;9.90;;;;;;;;;;5014458;28;20038;-78
2023/08/23 01:00:13;;;;;;;14.38;10.60;;;;;;;;;;5013051;28;20521;-78
2023/08/23 01:02:39;;;;;;;15.80;10.80;;;;;;;;;;5013554;28;20077;-78
2023/08/23 01:05:05;;;;;;;14.95;11.63;;;;;;;;;;5013629;28;20062;-78
2023/08/23 01:07:43;;;;;;;14.10;11.23;;;;;;;;;;5014187;28;20050;-77
2023/08/23 01:10:13;;;;;;;15.02;10.93;;;;;;;;;;5014443;28;20050;-78
2023/08/23 01:12:39;;;;;;;14.90;10.57;;;;;;;;;;4996219;28;20057;-79
2023/08/23 01:15:06;;;;;;;14.55;10.90;;;;;;;;;;5014058;28;20042;-79
2023/08/23 01:17:32;;;;;;;14.30;11.23;;;;;;;;;;4996298;28;20128;-79
2023/08/23 01:19:58;;;;;;;14.93;10.52;;;;;;;;;;5013895;28;20117;-79
2023/08/23 01:22:28;;;;;;;14.15;10.77;;;;;;;;;;4996994;28;20046;-79
2023/08/23 01:24:55;;;;;;;16.17;10.80;;;;;;;;;;5013727;28;20491;-79
2023/08/23 01:27:24;;;;;;;15.02;10.93;;;;;;;;;;4996233;28;20052;-79
2023/08/23 01:29:50;;;;;;;13.95;10.95;;;;;;;;;;5015481;28;20521;-79
2023/08/23 01:32:16;;;;;;;13.55;11.00;;;;;;;;;;5022676;28;20052;-79
2023/08/23 01:34:44;;;;;;;16.05;11.55;;;;;;;;;;5005886;28;20393;-79
2023/08/23 01:37:11;;;;;;;16.73;11.18;;;;;;;;;;5019043;28;20052;-79
2023/08/23 01:39:37;;;;;;;15.13;11.40;;;;;;;;;;5037038;28;20042;-79
2023/08/23 01:42:04;;;;;;;15.05;11.10;;;;;;;;;;4999371;28;20041;-79
2023/08/23 01:44:30;;;;;;;15.38;11.52;;;;;;;;;;5014947;28;20056;-79
2023/08/23 01:46:56;;;;;;;14.43;11.07;;;;;;;;;;5033487;28;20064;-78
2023/08/23 01:49:22;;;;;;;17.67;11.65;;;;;;;;;;5031547;28;20046;-79
2023/08/23 01:51:48;;;;;;;15.55;10.88;;;;;;;;;;5032923;28;20094;-79
2023/08/23 01:54:14;;;;;;;15.68;11.32;;;;;;;;;;5032900;28;20046;-79
2023/08/23 01:56:40;;;;;;;16.58;12.13;;;;;;;;;;5032074;28;20053;-79
2023/08/23 01:59:06;;;;;;;14.95;10.80;;;;;;;;;;5031540;28;20086;-77
2023/08/23 02:01:32;;;;;;;17.27;12.35;;;;;;;;;;5033116;28;20045;-79
2023/08/23 02:03:58;;;;;;;19.95;12.13;;;;;;;;;;5031230;28;20050;-79
2023/08/23 02:06:24;;;;;;;16.75;12.02;;;;;;;;;;5030658;28;20054;-79
2023/08/23 02:08:50;;;;;;;20.98;12.18;;;;;;;;;;5030285;28;20053;-79
2023/08/23 02:11:16;;;;;;;18.83;12.98;;;;;;;;;;5033234;28;20041;-78
2023/08/23 02:13:42;;;;;;;19.00;13.07;;;;;;;;;;5031099;28;20136;-78
2023/08/23 02:16:08;;;;;;;18.73;13.13;;;;;;;;;;5032909;28;20042;-78
2023/08/23 02:18:35;;;;;;;21.45;12.93;;;;;;;;;;5032376;28;20041;-78
2023/08/23 02:21:01;;;;;;;19.33;13.05;;;;;;;;;;5032584;28;20051;-78
2023/08/23 02:23:27;;;;;;;17.75;12.50;;;;;;;;;;5028655;28;20049;-77
2023/08/23 02:25:53;;;;;;;18.70;12.57;;;;;;;;;;5034349;28;20048;-78
2023/08/23 02:28:19;;;;;;;21.58;13.05;;;;;;;;;;5014924;28;20049;-78
2023/08/23 02:30:45;;;;;;;17.17;12.35;;;;;;;;;;5033028;28;20077;-79
2023/08/23 02:33:11;;;;;;;18.08;12.82;;;;;;;;;;5014818;28;20454;-79
2023/08/23 02:35:44;;;;;;;18.80;12.32;;;;;;;;;;5015132;28;20046;-79
2023/08/23 02:38:10;;;;;;;18.40;12.63;;;;;;;;;;5014997;28;20147;-79
2023/08/23 02:40:40;;;;;;;22.13;13.10;;;;;;;;;;5015185;28;20129;-78
2023/08/23 02:43:06;;;;;;;18.35;13.10;;;;;;;;;;5014751;28;20037;-79
2023/08/23 02:45:32;;;;;;;18.92;13.00;;;;;;;;;;5032706;28;20486;-79
2023/08/23 02:47:58;;;;;;;21.25;13.23;;;;;;;;;;5014686;28;20410;-79
2023/08/23 02:50:24;;;;;;;18.35;12.30;;;;;;;;;;5033078;28;20411;-77
2023/08/23 02:52:50;;;;;;;17.02;12.07;;;;;;;;;;5042183;28;20045;-75
2023/08/23 02:55:16;;;;;;;18.80;12.45;;;;;;;;;;5007238;28;20064;-75
2023/08/23 02:57:42;;;;;;;19.67;13.88;;;;;;;;;;5015826;28;20053;-78
2023/08/23 03:00:09;;;;;;;17.83;13.05;;;;;;;;;;5033138;28;20383;-78
2023/08/23 03:02:35;;;;;;;21.58;14.35;;;;;;;;;;5014722;28;20501;-78
2023/08/23 03:05:01;;;;;;;18.35;13.85;;;;;;;;;;5032427;28;20113;-79
2023/08/23 03:07:27;;;;;;;16.60;12.70;;;;;;;;;;5032495;28;20099;-79
2023/08/23 03:09:53;;;;;;;20.77;13.90;;;;;;;;;;5032984;28;20049;-79
2023/08/23 03:12:19;;;;;;;21.90;15.68;;;;;;;;;;5032728;28;20041;-78
2023/08/23 03:14:45;;;;;;;18.05;13.88;;;;;;;;;;5032684;28;20041;-78
2023/08/23 03:17:11;;;;;;;21.65;15.10;;;;;;;;;;5032435;28;20049;-79
2023/08/23 03:19:37;;;;;;;20.95;15.20;;;;;;;;;;5032742;28;20351;-79
2023/08/23 03:22:04;;;;;;;22.77;15.13;;;;;;;;;;5032621;28;20120;-78
2023/08/23 03:24:30;;;;;;;22.27;15.93;;;;;;;;;;5032752;28;20449;-78
2023/08/23 03:26:56;;;;;;;21.27;15.15;;;;;;;;;;5011311;28;20053;-78
2023/08/23 03:29:22;;;;;;;23.25;14.88;;;;;;;;;;5012682;28;20498;-79
2023/08/23 03:31:48;;;;;;;21.77;15.52;;;;;;;;;;5012506;28;20042;-77
2023/08/23 03:34:14;;;;;;;19.27;14.70;;;;;;;;;;5012529;28;20399;-78
2023/08/23 03:36:40;;;;;;;20.63;15.35;;;;;;;;;;4998852;28;20061;-79
2023/08/23 03:39:06;;;;;;;22.95;14.57;;;;;;;;;;5016272;28;20453;-79
2023/08/23 03:41:32;;;;;;;19.67;14.05;;;;;;;;;;4998671;28;20089;-79
2023/08/23 03:43:58;;;;;;;20.38;13.27;;;;;;;;;;4998333;28;20156;-79
2023/08/23 03:46:25;;;;;;;14.88;11.75;;;;;;;;;;5015974;28;20046;-78
2023/08/23 03:48:51;;;;;;;15.75;11.98;;;;;;;;;;4997869;28;20464;-78
2023/08/23 03:51:17;;;;;;;16.38;11.90;;;;;;;;;;4998536;28;20264;-79
2023/08/23 03:53:44;;;;;;;16.13;11.05;;;;;;;;;;5013953;28;20037;-78
2023/08/23 03:56:10;;;;;;;14.70;11.13;;;;;;;;;;4981232;28;20410;-79
2023/08/23 03:58:36;;;;;;;18.48;11.85;;;;;;;;;;4997867;28;20050;-78
2023/08/23 04:01:02;;;;;;;14.40;10.35;;;;;;;;;;5015317;28;20037;-78
2023/08/23 04:03:28;;;;;;;13.73;10.80;;;;;;;;;;4997301;28;20053;-78
2023/08/23 04:05:54;;;;;;;14.45;10.50;;;;;;;;;;5015581;28;20060;-78
2023/08/23 04:08:20;;;;;;;14.63;11.45;;;;;;;;;;5015337;28;20045;-79
2023/08/23 04:10:50;;;;;;;15.00;11.07;;;;;;;;;;5015934;28;20452;-78
2023/08/23 04:13:17;;;;;;;12.38;9.88;;;;;;;;;;4997446;28;20050;-79
2023/08/23 04:15:46;;;;;;;12.75;10.07;;;;;;;;;;4982024;28;20053;-79
2023/08/23 04:18:12;;;;;;;13.25;10.40;;;;;;;;;;4997836;28;20124;-79
2023/08/23 04:20:39;;;;;;;15.02;11.20;;;;;;;;;;5015263;28;20046;-80
2023/08/23 04:23:05;;;;;;;18.85;12.50;;;;;;;;;;5013396;28;20050;-79
2023/08/23 04:25:33;;;;;;;15.15;11.95;;;;;;;;;;4998068;28;20445;-79
2023/08/23 04:27:59;;;;;;;17.55;12.27;;;;;;;;;;5030909;28;20052;-79
2023/08/23 04:30:25;;;;;;;14.75;12.05;;;;;;;;;;5035290;28;20037;-79
2023/08/23 04:32:51;;;;;;;15.70;12.00;;;;;;;;;;5034515;28;20048;-78
2023/08/23 04:35:17;;;;;;;20.48;13.88;;;;;;;;;;5017188;28;20409;-79
2023/08/23 04:37:43;;;;;;;21.75;14.82;;;;;;;;;;5034640;28;20124;-79
2023/08/23 04:40:09;;;;;;;21.13;15.90;;;;;;;;;;5034948;28;20099;-79
2023/08/23 04:42:37;;;;;;;23.50;17.15;;;;;;;;;;5034383;28;20049;-79
2023/08/23 04:45:03;;;;;;;24.35;16.60;;;;;;;;;;5016167;28;20115;-79
2023/08/23 04:47:30;;;;;;;21.65;15.93;;;;;;;;;;5012313;28;20057;-79
2023/08/23 04:49:57;;;;;;;21.40;16.98;;;;;;;;;;5032860;28;20057;-78
2023/08/23 04:52:23;;;;;;;22.08;16.95;;;;;;;;;;5016568;28;20159;-78
2023/08/23 04:54:49;;;;;;;20.85;16.60;;;;;;;;;;5034384;28;20394;-78
2023/08/23 04:57:15;;;;;;;24.60;17.55;;;;;;;;;;5034069;28;20056;-78
2023/08/23 04:59:41;;;;;;;22.50;17.05;;;;;;;;;;5017082;28;20041;-78
2023/08/23 05:02:07;;;;;;;21.60;16.50;;;;;;;;;;5033840;28;20052;-78
2023/08/23 05:04:33;;;;;;;25.63;18.33;;;;;;;;;;5033704;28;20053;-79
2023/08/23 05:06:59;;;;;;;20.77;16.60;;;;;;;;;;5000059;28;20060;-78
2023/08/23 05:09:28;;;;;;;24.90;17.95;;;;;;;;;;5034066;28;20117;-79
2023/08/23 05:11:54;;;;;;;25.83;19.10;;;;;;;;;;5034162;28;20053;-79
2023/08/23 05:14:20;;;;;;;24.80;17.85;;;;;;;;;;5015771;28;20046;-78
2023/08/23 05:16:46;;;;;;;27.63;18.80;;;;;;;;;;5016135;28;20045;-79
2023/08/23 05:19:12;;;;;;;25.30;18.10;;;;;;;;;;5033693;28;20087;-79
2023/08/23 05:21:40;;;;;;;23.05;17.95;;;;;;;;;;5033970;28;20170;-79
2023/08/23 05:24:09;;;;;;;30.38;21.75;;;;;;;;;;5016358;28;20081;-79
2023/08/23 05:26:35;;;;;;;30.33;20.60;;;;;;;;;;5028298;28;20483;-78
2023/08/23 05:29:01;;;;;;;27.92;21.50;;;;;;;;;;5013907;28;20129;-78
2023/08/23 05:31:28;;;;;;;30.92;22.67;;;;;;;;;;4996449;28;20332;-80
2023/08/23 05:33:54;;;;;;;29.83;22.27;;;;;;;;;;5013236;28;20042;-78
2023/08/23 05:36:20;;;;;;;32.13;22.25;;;;;;;;;;5013737;28;20046;-78
2023/08/23 05:38:47;;;;;;;32.75;22.17;;;;;;;;;;4979399;28;20144;-77
2023/08/23 05:41:13;;;;;;;31.30;22.45;;;;;;;;;;5013679;28;20091;-78
2023/08/23 05:43:39;;;;;;;33.10;22.42;;;;;;;;;;5013193;28;20041;-78
2023/08/23 05:46:05;;;;;;;32.40;23.48;;;;;;;;;;4995910;28;20185;-78
2023/08/23 05:48:34;;;;;;;33.30;24.45;;;;;;;;;;4995740;28;20089;-78
2023/08/23 05:51:01;;;;;;;33.17;22.83;;;;;;;;;;5013887;28;20129;-77
2023/08/23 05:53:27;;;;;;;32.58;22.38;;;;;;;;;;5013090;28;20081;-78
2023/08/23 05:55:53;;;;;;;35.10;23.98;;;;;;;;;;4996070;28;20049;-79
2023/08/23 05:58:19;;;;;;;29.70;21.65;;;;;;;;;;4995328;28;20172;-79
2023/08/23 06:00:46;;;;;;;31.00;22.65;;;;;;;;;;4996084;28;20399;-79
2023/08/23 06:03:15;;;;;;;29.50;21.80;;;;;;;;;;5012562;28;20133;-79
2023/08/23 06:05:44;;;;;;;25.85;19.67;;;;;;;;;;4993037;28;20050;-78
2023/08/23 06:08:10;;;;;;;25.75;18.25;;;;;;;;;;4977256;28;20141;-78
2023/08/23 06:10:36;;;;;;;24.08;18.30;;;;;;;;;;5011119;28;20436;-78
2023/08/23 06:13:03;;;;;;;23.27;16.30;;;;;;;;;;4994091;28;20487;-79
2023/08/23 06:15:29;;;;;;;20.30;16.30;;;;;;;;;;4995444;28;20053;-79
2023/08/23 06:17:55;;;;;;;20.35;16.20;;;;;;;;;;5012769;28;20038;-79
2023/08/23 06:20:21;;;;;;;19.73;15.75;;;;;;;;;;5011268;28;20152;-79
2023/08/23 06:22:48;;;;;;;18.70;15.27;;;;;;;;;;5012779;28;20054;-79
2023/08/23 06:25:14;;;;;;;18.92;14.13;;;;;;;;;;5013206;28;20392;-79
2023/08/23 06:27:40;;;;;;;17.75;13.82;;;;;;;;;;4994721;28;20500;-79
2023/08/23 06:30:06;;;;;;;18.20;13.32;;;;;;;;;;5013391;28;20042;-79
2023/08/23 06:32:32;;;;;;;19.55;14.43;;;;;;;;;;5001798;28;20418;-79
2023/08/23 06:34:59;;;;;;;16.00;13.13;;;;;;;;;;5012673;28;20053;-78
2023/08/23 06:37:25;;;;;;;22.48;15.85;;;;;;;;;;5022904;28;20072;-78
2023/08/23 06:39:51;;;;;;;21.98;16.67;;;;;;;;;;5032458;28;20119;-78
2023/08/23 06:42:17;;;;;;;19.95;16.05;;;;;;;;;;5032307;28;20060;-78
2023/08/23 06:44:44;;;;;;;18.95;15.30;;;;;;;;;;5032534;28;20402;-78
2023/08/23 06:47:10;;;;;;;22.20;16.70;;;;;;;;;;5032158;28;20099;-78
2023/08/23 06:49:36;;;;;;;19.52;16.52;;;;;;;;;;5032525;28;20048;-78
2023/08/23 06:52:03;;;;;;;22.73;17.38;;;;;;;;;;5031175;28;20092;-79
2023/08/23 06:54:29;;;;;;;20.30;17.48;;;;;;;;;;5032736;28;20446;-79
2023/08/23 06:56:55;;;;;;;21.85;17.55;;;;;;;;;;5040265;28;20080;-76
2023/08/23 06:59:21;;;;;;;21.67;16.98;;;;;;;;;;5021790;28;20049;-76
2023/08/23 07:01:48;;;;;;;20.65;18.20;;;;;;;;;;5034306;28;20048;-80
2023/08/23 07:04:14;;;;;;;23.92;17.67;;;;;;;;;;5031905;28;20172;-78
2023/08/23 07:06:40;;;;;;;23.20;17.25;;;;;;;;;;5014997;28;20053;-79
2023/08/23 07:09:06;;;;;;;20.08;16.30;;;;;;;;;;5014511;28;20045;-79
2023/08/23 07:11:32;;;;;;;19.23;16.05;;;;;;;;;;5019042;28;20139;-79
2023/08/23 07:13:58;;;;;;;20.15;15.95;;;;;;;;;;5018566;28;20091;-79
2023/08/23 07:16:24;;;;;;;19.58;16.83;;;;;;;;;;5018272;28;20041;-79
2023/08/23 07:18:52;;;;;;;19.60;15.20;;;;;;;;;;5033806;28;20303;-79
2023/08/23 07:21:18;;;;;;;22.10;15.82;;;;;;;;;;5034780;28;20399;-78
2023/08/23 07:23:44;;;;;;;21.05;14.38;;;;;;;;;;5018252;28;20449;-78
2023/08/23 07:26:10;;;;;;;17.60;13.65;;;;;;;;;;5017122;28;20048;-79
2023/08/23 07:28:36;;;;;;;17.52;13.27;;;;;;;;;;5016248;28;20144;-78
2023/08/23 07:31:02;;;;;;;15.60;12.88;;;;;;;;;;4998847;28;20168;-78
2023/08/23 07:33:28;;;;;;;16.73;13.10;;;;;;;;;;5015743;28;20046;-78
2023/08/23 07:35:56;;;;;;;18.40;12.70;;;;;;;;;;5016262;28;20537;-79
2023/08/23 07:38:22;;;;;;;16.15;12.50;;;;;;;;;;5016385;28;20057;-78
2023/08/23 07:40:48;;;;;;;19.50;12.43;;;;;;;;;;5016158;28;20099;-78
2023/08/23 07:43:14;;;;;;;15.85;12.23;;;;;;;;;;5015788;28;20371;-78
2023/08/23 07:45:40;;;;;;;15.48;11.98;;;;;;;;;;4998471;28;20042;-78
2023/08/23 07:48:06;;;;;;;15.30;12.35;;;;;;;;;;4997753;28;20054;-78
2023/08/23 07:50:32;;;;;;;14.23;11.43;;;;;;;;;;5016157;28;20053;-80
2023/08/23 07:52:58;;;;;;;13.52;11.05;;;;;;;;;;4998151;28;20053;-79
2023/08/23 07:55:24;;;;;;;16.25;11.65;;;;;;;;;;5015592;28;20441;-79
2023/08/23 07:57:50;;;;;;;15.38;11.07;;;;;;;;;;4997003;28;20077;-78
2023/08/23 08:00:18;;;;;;;13.13;9.68;;;;;;;;;;5016186;28;20049;-79
2023/08/23 08:02:44;;;;;;;15.98;10.73;;;;;;;;;;4997798;28;20056;-78
2023/08/23 08:05:10;;;;;;;12.13;10.60;;;;;;;;;;5015427;28;20482;-79
2023/08/23 08:07:36;;;;;;;13.18;9.82;;;;;;;;;;5014200;28;20050;-79
2023/08/23 08:10:03;;;;;;;11.90;9.45;;;;;;;;;;4981935;28;20038;-78
2023/08/23 08:12:29;;;;;;;12.82;9.40;;;;;;;;;;5015381;28;20100;-79
2023/08/23 08:14:55;;;;;;;13.52;9.38;;;;;;;;;;4997524;28;20074;-79
2023/08/23 08:17:21;;;;;;;13.27;9.77;;;;;;;;;;4997106;28;20530;-80
2023/08/23 08:19:47;;;;;;;11.98;9.20;;;;;;;;;;5014917;28;20045;-79
2023/08/23 08:22:13;;;;;;;12.02;9.20;;;;;;;;;;5012504;28;20081;-79
2023/08/23 08:24:39;;;;;;;12.60;8.57;;;;;;;;;;4997714;28;20046;-79
2023/08/23 08:27:05;;;;;;;11.43;8.98;;;;;;;;;;5014487;28;20546;-79
2023/08/23 08:29:31;;;;;;;13.60;9.85;;;;;;;;;;5015553;28;20045;-79
2023/08/23 08:31:57;;;;;;;13.45;9.65;;;;;;;;;;5015146;28;20091;-79
2023/08/23 08:34:23;;;;;;;12.15;8.27;;;;;;;;;;5014811;28;20502;-79
2023/08/23 08:36:49;;;;;;;16.25;9.38;;;;;;;;;;5015052;28;20041;-78
2023/08/23 08:39:15;;;;;;;13.10;8.48;;;;;;;;;;5015250;28;20050;-80
2023/08/23 08:41:44;;;;;;;12.65;8.80;;;;;;;;;;4997220;28;20042;-79
2023/08/23 08:44:12;;;;;;;15.68;8.80;;;;;;;;;;5014322;28;20447;-79
2023/08/23 08:46:39;;;;;;;15.38;9.20;;;;;;;;;;4997203;28;20049;-79
2023/08/23 08:49:05;;;;;;;12.80;9.27;;;;;;;;;;5014668;28;20103;-79
2023/08/23 08:51:35;;;;;;;14.88;8.13;;;;;;;;;;5014484;28;20042;-79
2023/08/23 08:54:02;;;;;;;12.65;8.40;;;;;;;;;;5013875;28;20153;-79
2023/08/23 08:56:30;;;;;;;12.77;8.30;;;;;;;;;;5014734;28;20053;-79
2023/08/23 08:58:56;;;;;;;12.35;8.90;;;;;;;;;;4997114;28;20437;-79
2023/08/23 09:01:22;;;;;;;10.98;7.53;;;;;;;;;;4997268;28;20054;-78
2023/08/23 09:03:49;;;;;;;12.27;7.82;;;;;;;;;;4993966;28;20494;-78
2023/08/23 09:06:15;;;;;;;12.80;7.43;;;;;;;;;;4997054;28;20046;-78
2023/08/23 09:08:41;;;;;;;11.43;7.22;;;;;;;;;;4997787;28;20390;-78
2023/08/23 09:11:08;;;;;;;12.40;7.22;;;;;;;;;;5014978;28;20145;-79
2023/08/23 09:13:35;;;;;;;12.20;7.60;;;;;;;;;;5013937;28;20049;-79
2023/08/23 09:16:01;;;;;;;13.77;7.53;;;;;;;;;;5014422;28;20410;-79
2023/08/23 09:18:27;;;;;;;12.00;7.07;;;;;;;;;;5014208;28;20045;-79
2023/08/23 09:20:53;;;;;;;12.95;6.65;;;;;;;;;;4996637;28;20050;-79
2023/08/23 09:23:19;;;;;;;12.75;7.32;;;;;;;;;;5012932;28;20077;-79
2023/08/23 09:25:47;;;;;;;11.20;7.20;;;;;;;;;;5014240;28;20045;-79
2023/08/23 09:28:14;;;;;;;11.00;6.85;;;;;;;;;;5013112;28;20100;-80
2023/08/23 09:30:40;;;;;;;10.15;7.47;;;;;;;;;;5033818;28;20116;-79
2023/08/23 09:33:09;;;;;;;11.60;7.45;;;;;;;;;;4995564;28;20046;-79
2023/08/23 09:35:36;;;;;;;9.30;7.22;;;;;;;;;;4996396;28;20042;-79
2023/08/23 09:38:04;;;;;;;10.40;8.20;;;;;;;;;;5013683;28;20046;-79
2023/08/23 09:40:30;;;;;;;11.20;6.93;;;;;;;;;;4996529;28;20402;-79
2023/08/23 09:42:56;;;;;;;10.45;6.97;;;;;;;;;;4995802;28;20112;-79
2023/08/23 09:45:23;;;;;;;9.63;7.20;;;;;;;;;;4995972;28;20042;-79
2023/08/23 09:48:04;;;;;;;11.98;7.00;;;;;;;;;;5013594;28;20045;-78
2023/08/23 09:50:31;;;;;;;9.68;6.95;;;;;;;;;;5013843;28;20046;-78
2023/08/23 09:53:06;;;;;;;10.88;7.47;;;;;;;;;;5013170;28;20045;-80
2023/08/23 09:55:33;;;;;;;10.55;6.53;;;;;;;;;;5010997;28;20811;-79
2023/08/23 09:58:00;;;;;;;11.45;6.38;;;;;;;;;;5013004;28;20041;-79
2023/08/23 10:00:27;;;;;;;12.88;7.30;;;;;;;;;;5013688;28;20119;-80
2023/08/23 10:02:53;;;;;;;10.73;6.68;;;;;;;;;;5012977;28;20042;-80
2023/08/23 10:05:20;;;;;;;10.88;6.95;;;;;;;;;;5013782;28;20411;-79
2023/08/23 10:07:46;;;;;;;10.57;6.78;;;;;;;;;;5013257;28;20073;-79
2023/08/23 10:10:12;;;;;;;10.77;6.78;;;;;;;;;;5013913;28;20057;-79
2023/08/23 10:12:41;;;;;;;11.75;6.40;;;;;;;;;;4995339;28;20128;-79
2023/08/23 10:15:08;;;;;;;11.00;7.28;;;;;;;;;;5013185;28;20042;-79
2023/08/23 10:17:34;;;;;;;9.90;6.45;;;;;;;;;;5012562;28;20100;-78
2023/08/23 10:20:03;;;;;;;9.95;6.30;;;;;;;;;;5013392;28;20041;-78
2023/08/23 10:22:32;;;;;;;8.52;5.30;;;;;;;;;;5012332;28;20232;-80
2023/08/23 10:24:58;;;;;;;11.30;5.20;;;;;;;;;;5011121;28;20045;-79
2023/08/23 10:27:25;;;;;;;10.23;4.30;;;;;;;;;;4992865;28;20053;-79
2023/08/23 10:29:51;;;;;;;7.05;4.50;;;;;;;;;;5012942;28;20053;-79
2023/08/23 10:32:17;;;;;;;7.07;4.80;;;;;;;;;;4995336;28;20045;-79
2023/08/23 10:34:44;;;;;;;8.65;4.45;;;;;;;;;;4995161;28;20482;-79
2023/08/23 10:37:14;;;;;;;9.88;4.70;;;;;;;;;;5011801;28;20050;-79
2023/08/23 10:39:46;;;;;;;6.57;4.50;;;;;;;;;;4993658;28;20068;-79
2023/08/23 10:42:12;;;;;;;8.13;4.20;;;;;;;;;;5012231;28;20056;-80
2023/08/23 10:44:49;;;;;;;7.82;3.60;;;;;;;;;;4994739;28;20068;-79
2023/08/23 10:47:16;;;;;;;9.43;4.00;;;;;;;;;;4993596;28;20046;-80
2023/08/23 10:49:43;;;;;;;6.25;3.53;;;;;;;;;;4994130;28;20499;-80
2023/08/23 10:52:09;;;;;;;7.50;4.60;;;;;;;;;;4995158;28;20050;-80
2023/08/23 10:54:36;;;;;;;8.25;3.80;;;;;;;;;;4995160;28;20042;-80
2023/08/23 10:57:03;;;;;;;8.95;3.60;;;;;;;;;;5013744;28;20070;-78
2023/08/23 10:59:29;;;;;;;6.07;3.25;;;;;;;;;;5024002;28;20130;-76
2023/08/23 11:01:56;;;;;;;6.78;3.97;;;;;;;;;;5005099;28;20080;-77
2023/08/23 11:04:23;;;;;;;7.72;3.83;;;;;;;;;;5013467;28;20061;-80
2023/08/23 11:06:49;;;;;;;10.57;4.25;;;;;;;;;;5013165;28;20085;-79
2023/08/23 11:09:19;;;;;;;7.50;4.00;;;;;;;;;;5013121;28;20450;-79
2023/08/23 11:11:45;;;;;;;8.00;3.70;;;;;;;;;;5013099;28;20380;-79
2023/08/23 11:14:11;;;;;;;6.65;3.72;;;;;;;;;;5012196;28;20084;-80
2023/08/23 11:16:38;;;;;;;5.15;3.20;;;;;;;;;;4995782;28;20096;-80
2023/08/23 11:19:05;;;;;;;8.43;4.18;;;;;;;;;;5011737;28;20091;-80
2023/08/23 11:21:32;;;;;;;6.72;4.13;;;;;;;;;;4994606;28;20180;-79
2023/08/23 11:24:03;;;;;;;7.32;3.70;;;;;;;;;;5010798;28;20530;-79
2023/08/23 11:26:30;;;;;;;4.97;3.00;;;;;;;;;;4995182;28;20439;-79
2023/08/23 11:28:56;;;;;;;4.82;2.30;;;;;;;;;;4994560;28;20049;-80
2023/08/23 11:31:22;;;;;;;7.25;2.10;;;;;;;;;;4994661;28;20046;-78
2023/08/23 11:33:48;;;;;;;5.22;2.05;;;;;;;;;;4992828;28;20049;-79
2023/08/23 11:36:18;;;;;;;5.93;2.00;;;;;;;;;;5013158;28;20081;-80
2023/08/23 11:38:46;;;;;;;7.63;2.10;;;;;;;;;;4995247;28;20344;-79
2023/08/23 11:41:12;;;;;;;4.88;1.90;;;;;;;;;;5012931;28;20045;-79
2023/08/23 11:43:44;;;;;;;6.20;2.00;;;;;;;;;;5012273;28;20398;-80
2023/08/23 11:46:10;;;;;;;7.50;2.10;;;;;;;;;;5011526;28;20116;-79
2023/08/23 11:48:37;;;;;;;4.57;2.10;;;;;;;;;;4994526;28;20141;-79
2023/08/23 11:51:05;;;;;;;6.07;2.05;;;;;;;;;;4995058;28;20041;-79
2023/08/23 11:53:31;;;;;;;5.38;1.98;;;;;;;;;;5011692;28;20084;-78
2023/08/23 11:55:57;;;;;;;5.53;2.10;;;;;;;;;;5013511;28;20037;-79
2023/08/23 11:58:24;;;;;;;6.50;2.20;;;;;;;;;;5015376;28;20398;-80
2023/08/23 12:00:50;;;;;;;4.38;1.92;;;;;;;;;;4998330;28;20054;-80
2023/08/23 12:03:16;;;;;;;4.45;2.17;;;;;;;;;;5015121;28;20053;-80
2023/08/23 12:05:42;;;;;;;4.85;2.15;;;;;;;;;;4998182;28;20057;-80
2023/08/23 12:08:08;;;;;;;6.15;2.13;;;;;;;;;;4997892;28;20056;-80
2023/08/23 12:10:34;;;;;;;4.53;1.95;;;;;;;;;;5015701;28;20152;-79
2023/08/23 12:13:01;;;;;;;6.40;2.58;;;;;;;;;;4997872;28;20114;-79
2023/08/23 12:15:27;;;;;;;6.93;2.28;;;;;;;;;;5015852;28;20383;-79
2023/08/23 12:17:54;;;;;;;8.07;2.65;;;;;;;;;;5015629;28;20042;-79
2023/08/23 12:20:20;;;;;;;7.30;2.60;;;;;;;;;;4998070;28;20053;-80
2023/08/23 12:22:47;;;;;;;7.10;2.40;;;;;;;;;;5015452;28;20046;-80
2023/08/23 12:25:13;;;;;;;5.28;2.00;;;;;;;;;;5014429;28;20042;-79
2023/08/23 12:27:39;;;;;;;4.93;1.75;;;;;;;;;;5020398;28;20045;-78
2023/08/23 12:30:09;;;;;;;7.95;1.90;;;;;;;;;;5035335;28;20042;-78
2023/08/23 12:32:35;;;;;;;5.93;1.90;;;;;;;;;;5034940;28;20046;-78
2023/08/23 12:35:04;;;;;;;5.22;1.88;;;;;;;;;;5034267;28;20037;-79
2023/08/23 12:37:30;;;;;;;4.90;1.88;;;;;;;;;;5034108;28;20049;-81
2023/08/23 12:39:56;;;;;;;4.95;1.95;;;;;;;;;;5017106;28;20045;-79
2023/08/23 12:42:22;;;;;;;5.30;2.00;;;;;;;;;;5034332;28;20116;-79
2023/08/23 12:44:49;;;;;;;6.68;1.80;;;;;;;;;;5016891;28;20041;-79
2023/08/23 12:47:15;;;;;;;5.15;1.52;;;;;;;;;;5016691;28;20383;-79
2023/08/23 12:49:41;;;;;;;3.75;1.50;;;;;;;;;;5034739;28;20088;-79
2023/08/23 12:52:09;;;;;;;2.72;1.40;;;;;;;;;;5034541;28;20045;-79
2023/08/23 12:54:35;;;;;;;3.08;1.30;;;;;;;;;;5016721;28;20105;-79
2023/08/23 12:57:01;;;;;;;4.72;1.65;;;;;;;;;;5034340;28;20041;-79
2023/08/23 12:59:27;;;;;;;3.30;1.48;;;;;;;;;;5000570;28;20049;-80
2023/08/23 13:01:53;;;;;;;4.25;1.60;;;;;;;;;;5034521;28;20064;-80
2023/08/23 13:04:19;;;;;;;4.78;1.65;;;;;;;;;;5034232;28;20532;-78
2023/08/23 13:06:45;;;;;;;5.05;1.80;;;;;;;;;;5015402;28;20045;-79
2023/08/23 13:09:11;;;;;;;4.20;1.83;;;;;;;;;;4999110;28;20087;-79
2023/08/23 13:11:37;;;;;;;5.78;1.90;;;;;;;;;;5034571;28;20057;-79
2023/08/23 13:14:03;;;;;;;6.47;2.00;;;;;;;;;;5016330;28;20064;-79
2023/08/23 13:16:30;;;;;;;5.47;1.75;;;;;;;;;;5016217;28;20068;-78
2023/08/23 13:18:56;;;;;;;6.93;1.80;;;;;;;;;;5033748;28;20049;-79
2023/08/23 13:21:22;;;;;;;4.93;1.70;;;;;;;;;;5034019;28;20140;-79
2023/08/23 13:23:48;;;;;;;3.20;1.58;;;;;;;;;;5015870;28;20050;-80
2023/08/23 13:26:15;;;;;;;4.22;1.75;;;;;;;;;;5014100;28;20045;-79
2023/08/23 13:28:42;;;;;;;5.88;1.70;;;;;;;;;;4996181;28;20049;-79
2023/08/23 13:31:08;;;;;;;5.45;1.80;;;;;;;;;;4996753;28;20042;-80
2023/08/23 13:33:34;;;;;;;3.55;1.58;;;;;;;;;;5015381;28;20332;-80
2023/08/23 13:36:00;;;;;;;5.35;1.35;;;;;;;;;;5033429;28;20140;-80
2023/08/23 13:38:30;;;;;;;5.28;1.55;;;;;;;;;;5032766;28;20045;-78
2023/08/23 13:40:56;;;;;;;4.00;1.58;;;;;;;;;;5016059;28;20041;-79
2023/08/23 13:43:22;;;;;;;9.60;1.80;;;;;;;;;;5033072;28;20054;-79
2023/08/23 13:45:48;;;;;;;4.00;1.50;;;;;;;;;;4999836;28;20049;-79
2023/08/23 13:48:14;;;;;;;5.72;1.70;;;;;;;;;;5015413;28;20406;-79
2023/08/23 13:50:40;;;;;;;3.97;1.40;;;;;;;;;;5033444;28;20048;-80
2023/08/23 13:53:06;;;;;;;4.25;1.85;;;;;;;;;;5032275;28;20379;-79
2023/08/23 13:55:32;;;;;;;5.25;1.70;;;;;;;;;;5033290;28;20049;-79
2023/08/23 13:57:58;;;;;;;7.07;1.70;;;;;;;;;;5032977;28;20049;-79
2023/08/23 14:00:24;;;;;;;4.43;1.75;;;;;;;;;;5034130;28;20049;-79
2023/08/23 14:02:50;;;;;;;6.05;2.33;;;;;;;;;;5015219;28;20046;-79
2023/08/23 14:05:16;;;;;;;8.05;3.28;;;;;;;;;;5015728;28;20042;-79
2023/08/23 14:07:43;;;;;;;6.82;3.15;;;;;;;;;;5031717;28;20053;-79
2023/08/23 14:10:09;;;;;;;7.63;3.08;;;;;;;;;;4998070;28;20037;-79
2023/08/23 14:12:36;;;;;;;8.20;3.40;;;;;;;;;;4998716;28;20045;-79
2023/08/23 14:15:02;;;;;;;9.27;3.67;;;;;;;;;;5015375;28;20045;-79
2023/08/23 14:17:28;;;;;;;8.63;3.58;;;;;;;;;;5032657;28;20121;-79
2023/08/23 14:19:54;;;;;;;7.00;3.50;;;;;;;;;;5032709;28;20092;-79
2023/08/23 14:22:21;;;;;;;8.90;4.15;;;;;;;;;;5032528;28;20452;-79